Time;durP1;ratioP1;P1;durP2;ratioP2;P2;SDS_P1;SDS_P2;PMS_P1;PMS_P2;Temp;Humidity;BMP_temperature;BMP_pressure;BME280_temperature;BME280_humidity;BME280_pressure;Samples;Min_cycle;Max_cycle;Signal;HPM_P1;HPM_P2
2023/05/05 00:00:14;;;;;;;12.00;9.98;;;;;;;15.99;100.00;101347.50;4974857;28;20513;-47
2023/05/05 00:02:40;;;;;;;8.63;7.80;;;;;;;16.30;100.00;101416.81;4990815;28;20030;-43
2023/05/05 00:05:06;;;;;;;8.70;7.50;;;;;;;16.18;100.00;101392.63;4989732;28;20056;-46
2023/05/05 00:07:31;;;;;;;6.88;6.18;;;;;;;16.05;100.00;101407.41;4991647;28;20061;-44
2023/05/05 00:09:57;;;;;;;5.43;4.93;;;;;;;15.46;100.00;101306.56;4992305;28;20089;-44
2023/05/05 00:12:22;;;;;;;5.80;4.78;;;;;;;15.87;100.00;101387.88;4973821;28;20030;-42
2023/05/05 00:14:48;;;;;;;5.20;4.70;;;;;;;15.75;100.00;101370.72;4991950;28;20030;-48
2023/05/05 00:17:13;;;;;;;5.07;4.43;;;;;;;15.68;100.00;101374.56;4992814;28;20470;-43
2023/05/05 00:19:39;;;;;;;6.22;4.30;;;;;;;15.24;100.00;101296.06;4991616;28;20118;-48
2023/05/05 00:22:05;;;;;;;4.80;3.85;;;;;;;15.11;100.00;101282.50;4990956;28;20121;-45
2023/05/05 00:24:30;;;;;;;5.70;3.85;;;;;;;15.38;100.00;101343.19;4974908;28;20113;-44
2023/05/05 00:26:56;;;;;;;3.40;2.92;;;;;;;15.41;100.00;101343.91;4974574;28;20077;-42
2023/05/05 00:29:21;;;;;;;5.32;3.30;;;;;;;15.01;100.00;101283.81;4991876;28;20096;-45
2023/05/05 00:31:49;;;;;;;3.88;3.00;;;;;;;15.37;100.00;101330.84;4991734;28;20501;-43
2023/05/05 00:34:15;;;;;;;4.53;2.83;;;;;;;15.31;100.00;101323.16;4990625;28;20561;-45
2023/05/05 00:36:41;;;;;;;3.65;2.70;;;;;;;15.20;100.00;101319.22;4990147;28;20121;-46
2023/05/05 00:39:06;;;;;;;4.97;3.05;;;;;;;14.82;100.00;101250.22;4974535;28;20070;-42
2023/05/05 00:41:31;;;;;;;4.78;2.40;;;;;;;14.90;100.00;101264.88;4974539;28;20066;-42
2023/05/05 00:43:57;;;;;;;4.38;2.67;;;;;;;15.14;100.00;101324.78;4990325;28;20085;-42
2023/05/05 00:46:27;;;;;;;5.45;2.63;;;;;;;15.13;100.00;101315.09;4990179;28;20125;-47
2023/05/05 00:48:53;;;;;;;4.53;2.17;;;;;;;15.11;100.00;101335.53;4988820;28;20072;-45
2023/05/05 00:51:19;;;;;;;5.55;2.85;;;;;;;15.15;100.00;101337.09;4991773;28;20054;-45
2023/05/05 00:53:45;;;;;;;3.65;2.60;;;;;;;15.18;100.00;101342.25;4989775;28;20053;-43
2023/05/05 00:56:15;;;;;;;3.72;2.13;;;;;;;14.85;100.00;101284.53;4977614;28;20034;-43
2023/05/05 00:58:42;;;;;;;5.43;2.65;;;;;;;15.21;100.00;101339.47;4994388;28;20038;-44
2023/05/05 01:01:08;;;;;;;4.78;2.25;;;;;;;14.87;100.00;101283.56;4995863;28;20113;-46
2023/05/05 01:03:35;;;;;;;5.28;2.28;;;;;;;15.16;100.00;101340.63;4978358;28;20151;-43
2023/05/05 01:06:14;;;;;;;6.28;2.53;;;;;;;14.83;100.00;101278.44;4996386;28;20038;-44
2023/05/05 01:08:55;;;;;;;4.03;1.88;;;;;;;14.95;100.00;101310.59;4988804;28;20054;-44
2023/05/05 01:11:26;;;;;;;5.05;2.40;;;;;;;15.14;100.00;101353.94;4995454;28;20042;-44
2023/05/05 01:14:15;;;;;;;8.32;2.22;;;;;;;15.03;100.00;101363.28;4994863;28;20370;-43
2023/05/05 01:16:51;;;;;;;4.13;1.75;;;;;;;14.90;100.00;101364.72;4995059;28;20497;-43
2023/05/05 01:19:35;;;;;;;4.20;2.60;;;;;;;14.80;100.00;101364.22;4995194;28;20037;-43
2023/05/05 01:22:02;;;;;;;3.70;1.77;;;;;;;14.68;100.00;101372.72;4995195;28;20117;-43
2023/05/05 01:24:44;;;;;;;4.35;2.08;;;;;;;14.57;100.00;101354.59;4978804;28;20042;-45
2023/05/05 01:27:19;;;;;;;2.97;1.90;;;;;;;14.52;100.00;101358.34;4977805;28;20029;-45
2023/05/05 01:29:56;;;;;;;4.72;2.13;;;;;;;14.09;100.00;101300.91;4995189;28;20085;-45
2023/05/05 01:32:25;;;;;;;2.50;1.77;;;;;;;14.13;100.00;101333.44;4994200;28;20039;-45
2023/05/05 01:35:23;;;;;;;2.17;1.55;;;;;;;14.23;100.00;101374.50;4976479;28;20054;-43
2023/05/05 01:37:50;;;;;;;3.70;2.25;;;;;;;14.15;100.00;101356.28;4991529;28;20046;-43
2023/05/05 01:40:20;;;;;;;2.58;1.88;;;;;;;13.95;100.00;101327.06;4977378;28;20038;-45
2023/05/05 01:42:46;;;;;;;3.00;1.65;;;;;;;14.26;100.00;101372.59;4959696;28;20038;-43
2023/05/05 01:45:13;;;;;;;3.17;1.90;;;;;;;14.28;100.00;101378.69;4978113;28;20129;-43
2023/05/05 01:47:39;;;;;;;2.08;1.42;;;;;;;13.89;100.00;101317.53;4995624;28;20062;-44
2023/05/05 01:50:05;;;;;;;2.88;1.63;;;;;;;14.30;100.00;101378.63;4995022;28;20077;-42
2023/05/05 01:52:31;;;;;;;6.20;2.00;;;;;;;14.22;100.00;101364.81;4978243;28;20077;-42
2023/05/05 01:54:57;;;;;;;3.15;1.35;;;;;;;14.16;100.00;101368.56;4986182;28;20026;-45
2023/05/05 01:57:24;;;;;;;3.78;1.90;;;;;;;13.79;100.00;101328.56;4975073;28;20068;-42
2023/05/05 01:59:50;;;;;;;4.93;2.00;;;;;;;13.65;100.00;101321.16;4993734;28;20023;-43
2023/05/05 02:02:17;;;;;;;3.65;1.70;;;;;;;13.86;100.00;101367.97;4974263;28;20461;-44
2023/05/05 02:04:43;;;;;;;4.20;1.80;;;;;;;13.88;100.00;101389.06;4984000;28;20034;-45
2023/05/05 02:07:10;;;;;;;2.63;1.98;;;;;;;13.60;100.00;101357.47;4977771;28;20408;-43
2023/05/05 02:09:36;;;;;;;2.13;1.85;;;;;;;13.72;100.00;101391.41;4977670;28;20466;-46
2023/05/05 02:12:03;;;;;;;2.13;1.90;;;;;;;13.60;100.00;101391.84;4976718;28;20092;-46
2023/05/05 02:14:29;;;;;;;3.72;2.40;;;;;;;13.48;100.00;101405.53;4994579;28;20046;-49
2023/05/05 02:16:56;;;;;;;3.60;2.00;;;;;;;13.39;100.00;101388.22;4993353;28;20030;-42
2023/05/05 02:19:34;;;;;;;5.20;2.10;;;;;;;13.30;100.00;101385.03;4977659;28;20038;-46
2023/05/05 02:22:00;;;;;;;2.97;2.05;;;;;;;13.25;100.00;101386.97;4976995;28;20034;-45
2023/05/05 02:24:25;;;;;;;4.20;2.20;;;;;;;13.28;100.00;101385.06;4976873;28;20042;-44
2023/05/05 02:26:52;;;;;;;3.55;2.15;;;;;;;12.61;100.00;101269.38;4993250;28;20500;-42
2023/05/05 02:29:30;;;;;;;2.42;1.90;;;;;;;13.24;100.00;101385.22;4993587;28;20556;-44
2023/05/05 02:32:00;;;;;;;3.65;2.17;;;;;;;12.90;100.00;101338.75;4976746;28;20121;-44
2023/05/05 02:34:27;;;;;;;4.15;2.40;;;;;;;12.86;100.00;101329.25;4994112;28;20421;-43
2023/05/05 02:36:56;;;;;;;4.03;2.50;;;;;;;13.16;100.00;101389.94;4958175;28;20043;-47
2023/05/05 02:39:27;;;;;;;7.55;2.75;;;;;;;12.66;100.00;101309.69;4976641;28;20034;-43
2023/05/05 02:41:54;;;;;;;3.42;2.90;;;;;;;12.74;100.00;101319.09;4994910;28;20034;-45
2023/05/05 02:44:22;;;;;;;5.32;2.72;;;;;;;13.10;100.00;101382.19;4976499;28;20042;-44
2023/05/05 02:46:48;;;;;;;6.55;3.35;;;;;;;13.04;100.00;101369.16;4992269;28;20493;-43
2023/05/05 02:49:13;;;;;;;7.18;2.40;;;;;;;13.10;100.00;101401.56;4991593;28;20038;-43
2023/05/05 02:51:39;;;;;;;3.85;2.83;;;;;;;12.90;100.00;101370.47;4994634;28;20042;-45
2023/05/05 02:54:04;;;;;;;4.93;2.67;;;;;;;13.08;100.00;101397.22;4974743;28;20073;-43
2023/05/05 02:56:36;;;;;;;5.50;3.30;;;;;;;12.99;100.00;101395.72;4994266;28;20034;-48
2023/05/05 02:59:13;;;;;;;6.78;3.05;;;;;;;12.88;100.00;101390.81;4975188;28;20039;-43
2023/05/05 03:01:55;;;;;;;7.40;3.90;;;;;;;12.63;100.00;101352.91;4992124;28;20513;-43
2023/05/05 03:05:07;;;;;;;10.73;4.57;;;;;;;12.91;100.00;101403.91;4993400;28;20049;-45
2023/05/05 03:07:49;;;;;;;8.05;4.47;;;;;;;12.90;100.00;101398.69;4905080;29;20119;-43
2023/05/05 03:10:18;;;;;;;7.00;5.75;;;;;;;12.89;100.00;101389.03;4932647;29;20099;-41
2023/05/05 03:13:04;;;;;;;8.43;5.82;;;;;;;12.90;100.00;101391.63;4972836;28;20054;-44
2023/05/05 03:15:31;;;;;;;8.75;6.53;;;;;;;12.66;100.00;101352.81;4974912;28;20578;-43
2023/05/05 03:17:58;;;;;;;7.97;6.40;;;;;;;12.83;100.00;101378.66;4991027;28;20034;-43
2023/05/05 03:20:23;;;;;;;11.73;7.07;;;;;;;12.88;100.00;101380.25;4991958;28;20034;-47
2023/05/05 03:22:49;;;;;;;9.40;7.40;;;;;;;12.63;100.00;101347.63;4975286;28;20184;-45
2023/05/05 03:25:14;;;;;;;11.18;8.13;;;;;;;12.88;100.00;101374.09;4993337;28;20118;-43
2023/05/05 03:27:40;;;;;;;11.65;8.63;;;;;;;12.86;100.00;101378.56;4990941;28;20062;-48
2023/05/05 03:30:06;;;;;;;13.07;9.40;;;;;;;12.82;100.00;101390.13;4964926;28;20038;-46
2023/05/05 03:32:31;;;;;;;12.55;9.45;;;;;;;12.80;100.00;101379.63;4974110;28;20343;-43
2023/05/05 03:34:57;;;;;;;11.77;9.73;;;;;;;12.77;100.00;101379.75;4989211;28;20038;-45
2023/05/05 03:37:22;;;;;;;11.77;10.18;;;;;;;12.37;100.00;101327.31;4992118;28;20089;-43
2023/05/05 03:39:47;;;;;;;14.55;11.07;;;;;;;12.70;100.00;101394.03;4991504;28;20490;-45
2023/05/05 03:42:13;;;;;;;21.77;12.07;;;;;;;12.67;100.00;101396.78;4992147;28;20486;-43
2023/05/05 03:44:38;;;;;;;17.88;12.70;;;;;;;12.57;100.00;101379.53;4990553;28;20038;-43
2023/05/05 03:47:03;;;;;;;17.25;14.10;;;;;;;12.57;100.00;101392.72;4984723;28;20518;-45
2023/05/05 03:49:29;;;;;;;19.05;14.25;;;;;;;12.48;100.00;101363.09;4966084;28;20061;-45
2023/05/05 03:51:54;;;;;;;18.25;15.48;;;;;;;12.51;100.00;101392.91;4963789;28;20126;-44
2023/05/05 03:54:19;;;;;;;21.13;16.73;;;;;;;12.18;100.00;101335.88;4973655;28;20402;-45
2023/05/05 03:56:45;;;;;;;22.02;18.17;;;;;;;12.14;100.00;101324.53;4974034;28;20368;-43
2023/05/05 03:59:10;;;;;;;23.40;19.17;;;;;;;12.12;100.00;101325.50;4956289;28;20376;-44
2023/05/05 04:01:35;;;;;;;31.98;19.58;;;;;;;12.49;100.00;101402.66;4977325;28;20122;-45
2023/05/05 04:04:01;;;;;;;28.55;20.38;;;;;;;12.48;100.00;101406.22;4989706;28;20053;-45
2023/05/05 04:06:26;;;;;;;28.35;21.50;;;;;;;12.48;100.00;101403.56;4975769;28;20497;-49
2023/05/05 04:08:52;;;;;;;30.45;23.52;;;;;;;12.50;100.00;101414.94;4975427;28;20129;-44
2023/05/05 04:11:18;;;;;;;27.33;21.75;;;;;;;12.50;100.00;101425.50;4993340;28;20034;-43
2023/05/05 04:13:43;;;;;;;33.47;22.88;;;;;;;12.11;100.00;101350.19;4975750;28;20485;-46
2023/05/05 04:16:08;;;;;;;31.80;24.88;;;;;;;12.10;100.00;101357.25;4992896;28;20104;-43
2023/05/05 04:18:34;;;;;;;33.22;25.67;;;;;;;12.48;100.00;101423.81;4992607;28;20077;-46
2023/05/05 04:21:00;;;;;;;37.28;28.00;;;;;;;12.10;100.00;101361.66;4985927;28;20038;-44
2023/05/05 04:23:25;;;;;;;38.40;28.35;;;;;;;12.47;100.00;101422.09;4973663;28;20517;-44
2023/05/05 04:25:51;;;;;;;40.20;30.42;;;;;;;12.43;100.00;101423.97;4980854;28;20045;-43
2023/05/05 04:28:16;;;;;;;38.30;31.17;;;;;;;12.44;100.00;101436.25;4978973;28;20039;-47
2023/05/05 04:30:41;;;;;;;42.58;32.53;;;;;;;12.38;100.00;101425.88;4956430;28;20078;-44
2023/05/05 04:33:07;;;;;;;44.28;32.10;;;;;;;12.05;100.00;101371.47;4956167;28;20081;-44
2023/05/05 04:35:32;;;;;;;49.33;33.85;;;;;;;12.34;100.00;101434.81;4973248;28;20035;-47
2023/05/05 04:37:57;;;;;;;44.55;33.42;;;;;;;12.24;100.00;101414.88;4981929;28;20213;-46
2023/05/05 04:40:25;;;;;;;44.60;34.63;;;;;;;12.30;100.00;101438.44;4981312;28;20050;-43
2023/05/05 04:42:50;;;;;;;48.15;35.95;;;;;;;12.30;100.00;101449.00;4954510;28;20034;-43
2023/05/05 04:45:16;;;;;;;47.92;35.38;;;;;;;11.95;100.00;101373.53;4992521;28;20045;-43
2023/05/05 04:47:41;;;;;;;48.88;37.13;;;;;;;12.35;100.00;101415.41;4970478;28;20098;-43
2023/05/05 04:50:07;;;;;;;49.55;36.58;;;;;;;12.46;100.00;101428.31;4987633;28;20477;-45
2023/05/05 04:52:33;;;;;;;51.25;37.33;;;;;;;12.44;100.00;101430.97;4991127;28;20149;-43
2023/05/05 04:54:58;;;;;;;47.25;36.72;;;;;;;12.41;100.00;101431.94;4992539;28;20150;-43
2023/05/05 04:57:24;;;;;;;43.28;34.90;;;;;;;12.07;100.00;101380.22;4992364;28;20030;-44
2023/05/05 04:59:49;;;;;;;48.10;36.13;;;;;;;12.17;100.00;101382.50;4973651;28;20030;-46
2023/05/05 05:02:14;;;;;;;48.78;36.65;;;;;;;12.22;100.00;101371.84;4991937;28;20041;-45
2023/05/05 05:04:40;;;;;;;48.30;36.95;;;;;;;12.62;100.00;101430.41;4992491;28;20193;-48
2023/05/05 05:07:05;;;;;;;44.63;35.85;;;;;;;12.64;100.00;101438.31;4992812;28;20077;-45
2023/05/05 05:09:31;;;;;;;43.97;34.03;;;;;;;12.61;100.00;101428.66;4992313;28;20486;-46
2023/05/05 05:12:01;;;;;;;41.03;33.08;;;;;;;12.68;100.00;101437.28;4992491;28;20169;-49
2023/05/05 05:14:27;;;;;;;44.90;34.28;;;;;;;12.81;100.00;101447.38;4992574;28;20114;-43
2023/05/05 05:16:53;;;;;;;43.00;33.17;;;;;;;12.90;100.00;101454.19;4974244;28;20043;-43
2023/05/05 05:19:18;;;;;;;39.90;31.90;;;;;;;12.98;100.00;101463.59;4992008;28;20120;-43
2023/05/05 05:21:43;;;;;;;36.78;31.02;;;;;;;13.04;100.00;101465.16;4992422;28;20027;-47
2023/05/05 05:24:10;;;;;;;41.47;31.42;;;;;;;13.12;100.00;101462.31;4992343;28;20651;-44
2023/05/05 05:26:35;;;;;;;37.97;29.08;;;;;;;13.14;100.00;101456.03;4992385;28;20031;-44
2023/05/05 05:29:01;;;;;;;35.42;30.13;;;;;;;13.25;100.00;101463.63;4958508;28;20032;-45
2023/05/05 05:31:26;;;;;;;37.35;30.10;;;;;;;13.29;100.00;101460.81;4957990;28;20061;-46
2023/05/05 05:33:51;;;;;;;35.83;29.52;;;;;;;13.44;100.00;101472.66;4992142;28;20038;-43
2023/05/05 05:36:17;;;;;;;34.58;30.17;;;;;;;13.29;100.00;101417.66;4992372;28;20474;-43
2023/05/05 05:38:42;;;;;;;33.35;28.33;;;;;;;13.37;100.00;101400.59;4991935;28;20034;-42
2023/05/05 05:41:07;;;;;;;35.53;28.17;;;;;;;13.80;100.00;101455.53;4996063;28;20084;-45
2023/05/05 05:43:33;;;;;;;31.35;26.30;;;;;;;13.93;100.00;101464.72;4994931;28;20042;-46
2023/05/05 05:45:58;;;;;;;34.63;26.27;;;;;;;13.83;100.00;101431.59;4995872;28;20088;-44
2023/05/05 05:48:27;;;;;;;31.95;24.45;;;;;;;13.70;100.00;101397.69;4978236;28;20398;-44
2023/05/05 05:50:53;;;;;;;26.95;23.27;;;;;;;14.21;100.00;101459.28;4978363;28;20057;-45
2023/05/05 05:53:18;;;;;;;28.10;22.48;;;;;;;14.35;100.00;101494.09;4994689;28;20030;-44
2023/05/05 05:55:45;;;;;;;28.13;22.95;;;;;;;14.45;100.00;101489.28;4977901;28;20322;-45
2023/05/05 05:58:10;;;;;;;27.45;21.30;;;;;;;14.12;100.00;101432.28;4995473;28;20048;-44
2023/05/05 06:00:35;;;;;;;24.42;21.42;;;;;;;14.46;100.00;101499.84;4994693;28;20034;-44
2023/05/05 06:03:01;;;;;;;25.85;20.17;;;;;;;13.54;100.00;101358.56;4995372;28;20109;-44
2023/05/05 06:05:26;;;;;;;25.17;19.45;;;;;;;14.47;100.00;101511.31;4995182;28;20038;-44
2023/05/05 06:07:51;;;;;;;20.75;17.90;;;;;;;14.59;100.00;101495.78;4995408;28;20058;-43
2023/05/05 06:10:17;;;;;;;21.08;18.73;;;;;;;14.88;100.00;101504.41;4995547;28;20034;-44
2023/05/05 06:12:42;;;;;;;21.48;18.17;;;;;;;15.05;100.00;101518.72;4995233;28;20037;-44
2023/05/05 06:15:08;;;;;;;22.63;18.02;;;;;;;14.91;100.00;101472.50;4976809;28;20048;-46
2023/05/05 06:17:33;;;;;;;19.05;17.10;;;;;;;15.26;100.00;101503.75;4995197;28;20034;-44
2023/05/05 06:19:59;;;;;;;18.80;16.30;;;;;;;15.60;100.00;101527.97;4995389;28;20046;-45
2023/05/05 06:22:24;;;;;;;20.02;16.00;;;;;;;15.69;100.00;101521.41;4994968;28;20569;-42
2023/05/05 06:24:49;;;;;;;20.20;16.52;;;;;;;15.87;100.00;101503.81;4995158;28;20114;-43
2023/05/05 06:27:15;;;;;;;19.90;17.60;;;;;;;15.93;100.00;101477.00;4995111;28;20042;-43
2023/05/05 06:29:40;;;;;;;18.35;15.80;;;;;;;16.54;100.00;101536.22;4994983;28;20390;-42
2023/05/05 06:32:07;;;;;;;24.30;18.30;;;;;;;16.42;100.00;101484.47;4993454;28;20034;-44
2023/05/05 06:34:32;;;;;;;17.85;15.77;;;;;;;16.73;100.00;101489.22;4994987;28;20109;-43
2023/05/05 06:36:58;;;;;;;19.20;16.60;;;;;;;17.24;100.00;101545.25;4994754;28;20504;-44
2023/05/05 06:39:23;;;;;;;20.38;16.50;;;;;;;17.27;100.00;101541.56;4994806;28;20178;-44
2023/05/05 06:41:48;;;;;;;20.20;15.52;;;;;;;17.31;100.00;101551.13;4994793;28;20375;-44
2023/05/05 06:44:14;;;;;;;18.70;14.77;;;;;;;17.34;100.00;101543.84;4977567;28;20504;-44
2023/05/05 06:46:39;;;;;;;14.95;13.38;;;;;;;17.07;100.00;101496.47;4977311;28;20042;-45
2023/05/05 06:49:04;;;;;;;13.25;11.50;;;;;;;17.67;100.00;101554.66;4993515;28;20367;-44
2023/05/05 06:51:30;;;;;;;11.25;10.05;;;;;;;17.89;100.00;101560.59;4993941;28;20618;-44
2023/05/05 06:53:56;;;;;;;12.75;9.90;;;;;;;18.04;100.00;101555.47;4977347;28;20537;-44
2023/05/05 06:56:21;;;;;;;10.43;8.15;;;;;;;18.20;100.00;101565.22;4977131;28;20034;-46
2023/05/05 06:58:46;;;;;;;8.30;6.95;;;;;;;18.02;100.00;101574.16;4993824;28;20049;-44
2023/05/05 07:01:12;;;;;;;9.27;7.28;;;;;;;17.93;100.00;101574.63;4994161;28;20038;-45
2023/05/05 07:03:37;;;;;;;7.88;6.40;;;;;;;17.78;100.00;101568.28;4994320;28;20096;-47
2023/05/05 07:06:03;;;;;;;6.95;6.03;;;;;;;17.62;100.00;101530.06;4993099;28;20026;-42
2023/05/05 07:08:28;;;;;;;8.95;6.15;;;;;;;17.91;100.00;101569.41;4993516;28;20482;-42
2023/05/05 07:10:54;;;;;;;8.73;6.45;;;;;;;18.08;100.00;101554.34;4993964;28;20121;-44
2023/05/05 07:13:19;;;;;;;8.68;6.43;;;;;;;18.20;100.00;101561.69;4994057;28;20129;-47
2023/05/05 07:15:47;;;;;;;9.55;6.95;;;;;;;18.10;100.00;101508.00;4976244;28;20248;-46
2023/05/05 07:18:13;;;;;;;9.88;6.82;;;;;;;18.32;100.00;101551.25;4976804;28;20042;-43
2023/05/05 07:20:39;;;;;;;7.75;6.40;;;;;;;18.33;100.00;101568.94;4993987;28;20406;-44
2023/05/05 07:23:05;;;;;;;7.75;6.80;;;;;;;18.09;100.00;101514.31;4976017;28;20034;-48
2023/05/05 07:25:30;;;;;;;7.65;6.13;;;;;;;18.21;100.00;101512.78;4993802;28;20042;-43
2023/05/05 07:27:55;;;;;;;8.93;5.50;;;;;;;18.98;100.00;101559.22;4994089;28;20038;-47
2023/05/05 07:30:21;;;;;;;8.68;6.95;;;;;;;19.40;100.00;101556.81;4976508;28;20042;-46
2023/05/05 07:32:46;;;;;;;5.47;4.72;;;;;;;19.40;100.00;101502.56;4994153;28;20470;-45
2023/05/05 07:35:11;;;;;;;7.82;6.13;;;;;;;19.67;100.00;101513.44;4993570;28;20042;-48
2023/05/05 07:37:37;;;;;;;9.57;6.30;;;;;;;20.21;100.00;101550.19;4993697;28;20506;-46
2023/05/05 07:40:02;;;;;;;9.00;5.75;;;;;;;19.87;100.00;101567.41;4992677;28;20046;-44
2023/05/05 07:42:28;;;;;;;5.30;4.80;;;;;;;19.67;100.00;101584.56;4993728;28;20038;-51
2023/05/05 07:44:54;;;;;;;6.68;4.40;;;;;;;19.41;100.00;101533.66;4993542;28;20038;-44
2023/05/05 07:47:19;;;;;;;4.13;3.35;;;;;;;19.65;100.00;101594.50;4994182;28;20043;-45
2023/05/05 07:49:45;;;;;;;5.93;4.30;;;;;;;19.48;100.00;101591.94;4993937;28;20034;-44
2023/05/05 07:52:10;;;;;;;5.18;3.95;;;;;;;19.34;100.00;101589.19;4993179;28;20054;-49
2023/05/05 07:54:35;;;;;;;5.00;3.60;;;;;;;19.30;100.00;101592.09;4993489;28;20081;-45
2023/05/05 07:57:01;;;;;;;6.07;3.17;;;;;;;18.95;100.00;101544.25;4975081;28;20038;-45
2023/05/05 07:59:26;;;;;;;4.80;3.40;;;;;;;18.96;100.00;101539.78;4975919;28;20073;-46
2023/05/05 08:01:51;;;;;;;7.07;3.20;;;;;;;19.40;100.00;101588.88;4993030;28;20065;-46
2023/05/05 08:04:17;;;;;;;4.63;2.85;;;;;;;19.64;100.00;101590.09;4976038;28;20049;-44
2023/05/05 08:06:42;;;;;;;3.22;2.08;;;;;;;19.48;100.00;101593.75;4993478;28;20379;-45
2023/05/05 08:09:08;;;;;;;4.57;2.13;;;;;;;19.47;100.00;101610.72;4993130;28;20386;-43
2023/05/05 08:11:33;;;;;;;5.90;2.30;;;;;;;19.41;100.00;101609.25;4975489;28;20551;-42
2023/05/05 08:13:58;;;;;;;4.50;1.98;;;;;;;19.43;100.00;101612.72;4991631;28;20034;-42
2023/05/05 08:16:24;;;;;;;2.10;1.48;;;;;;;19.44;100.00;101617.09;4993509;28;20042;-46
2023/05/05 08:18:49;;;;;;;4.63;1.95;;;;;;;19.21;100.00;101579.25;4993023;28;20042;-42
2023/05/05 08:21:14;;;;;;;5.50;2.20;;;;;;;19.30;100.00;101616.97;4993287;28;20039;-43
2023/05/05 08:23:40;;;;;;;5.88;2.80;;;;;;;19.16;100.00;101568.00;4993185;28;20466;-42
2023/05/05 08:26:05;;;;;;;2.50;1.77;;;;;;;19.66;100.00;101557.97;4993401;28;20038;-44
2023/05/05 08:28:32;;;;;;;2.58;2.05;;;;;;;20.48;100.00;101620.72;4991695;28;20062;-42
2023/05/05 08:30:58;;;;;;;2.95;1.92;;;;;;;20.49;100.00;101560.09;4976152;28;20438;-43
2023/05/05 08:33:23;;;;;;;3.17;1.80;;;;;;;21.08;100.00;101618.72;4993601;28;20482;-43
2023/05/05 08:35:49;;;;;;;3.28;2.35;;;;;;;21.03;100.00;101628.84;4993035;28;20038;-48
2023/05/05 08:38:14;;;;;;;5.85;2.55;;;;;;;20.56;100.00;101610.41;4993093;28;20569;-41
2023/05/05 08:40:40;;;;;;;2.92;2.30;;;;;;;20.28;100.00;101630.91;4994317;28;20457;-45
2023/05/05 08:43:06;;;;;;;3.08;1.98;;;;;;;20.13;100.00;101624.63;4993423;28;20039;-45
2023/05/05 08:45:31;;;;;;;3.53;2.05;;;;;;;19.83;100.00;101621.09;4991340;28;20039;-42
2023/05/05 08:48:00;;;;;;;4.97;1.80;;;;;;;19.34;100.00;101557.16;4992440;28;20466;-44
2023/05/05 08:50:28;;;;;;;4.68;1.63;;;;;;;19.51;100.00;101621.16;4992446;28;20035;-49
2023/05/05 08:53:17;;;;;;;2.55;1.73;;;;;;;19.40;100.00;101618.22;4976541;28;20087;-42
2023/05/05 08:55:54;;;;;;;2.95;1.45;;;;;;;19.39;100.00;101620.97;4948286;28;20130;-44
2023/05/05 08:58:22;;;;;;;3.13;1.42;;;;;;;19.26;100.00;101610.13;4991960;28;20481;-44
2023/05/05 09:00:48;;;;;;;2.13;1.15;;;;;;;18.92;100.00;101556.88;4974759;28;20041;-44
2023/05/05 09:03:14;;;;;;;3.17;1.30;;;;;;;18.72;100.00;101559.78;4990614;28;20037;-42
2023/05/05 09:05:41;;;;;;;3.53;1.90;;;;;;;18.78;100.00;101627.00;4992113;28;20034;-43
2023/05/05 09:08:09;;;;;;;3.30;1.23;;;;;;;18.49;100.00;101625.91;4992917;28;20051;-45
2023/05/05 09:10:35;;;;;;;4.03;1.75;;;;;;;18.23;100.00;101618.38;4992969;28;20042;-42
2023/05/05 09:13:04;;;;;;;3.92;1.73;;;;;;;18.01;100.00;101619.53;4992449;28;20117;-41
2023/05/05 09:15:29;;;;;;;4.88;1.42;;;;;;;17.93;100.00;101615.47;4978099;28;20378;-42
2023/05/05 09:17:56;;;;;;;4.95;2.10;;;;;;;17.92;100.00;101620.88;4995262;28;20046;-43
2023/05/05 09:20:23;;;;;;;4.97;1.75;;;;;;;17.83;100.00;101621.34;4978553;28;20041;-42
2023/05/05 09:22:48;;;;;;;2.50;1.23;;;;;;;17.71;100.00;101612.16;4996354;28;20039;-43
2023/05/05 09:25:15;;;;;;;2.85;1.75;;;;;;;17.83;100.00;101624.84;4995834;28;20088;-44
2023/05/05 09:27:46;;;;;;;3.80;1.58;;;;;;;17.80;100.00;101630.34;4995523;28;20034;-42
2023/05/05 09:30:15;;;;;;;3.28;2.40;;;;;;;17.78;100.00;101626.00;4994876;28;20429;-44
2023/05/05 09:32:47;;;;;;;7.43;1.95;;;;;;;17.79;100.00;101630.41;4996084;28;20375;-44
2023/05/05 09:35:13;;;;;;;5.25;1.85;;;;;;;16.75;100.00;101451.00;4995252;28;20039;-42
2023/05/05 09:37:38;;;;;;;3.85;1.83;;;;;;;17.77;100.00;101624.31;4996009;28;20478;-48
2023/05/05 09:40:05;;;;;;;4.95;2.00;;;;;;;17.72;100.00;101624.50;4962567;28;20039;-42
2023/05/05 09:42:31;;;;;;;4.32;2.00;;;;;;;17.71;100.00;101627.25;4995832;28;20568;-46
2023/05/05 09:44:56;;;;;;;4.18;2.25;;;;;;;17.20;100.00;101567.59;4995810;28;20117;-42
2023/05/05 09:47:33;;;;;;;5.32;2.10;;;;;;;17.58;100.00;101623.47;4995853;28;20030;-41
2023/05/05 09:49:58;;;;;;;3.65;2.75;;;;;;;17.48;100.00;101611.53;4978250;28;20038;-42
2023/05/05 09:52:24;;;;;;;4.05;2.33;;;;;;;17.40;100.00;101603.91;4995120;28;20061;-42
2023/05/05 09:54:55;;;;;;;3.55;2.20;;;;;;;17.49;100.00;101606.13;4978561;28;20041;-45
2023/05/05 09:57:32;;;;;;;5.53;2.22;;;;;;;17.49;100.00;101608.78;4978283;28;20030;-42
2023/05/05 10:00:01;;;;;;;4.30;2.83;;;;;;;17.60;100.00;101610.97;4995565;28;20027;-42
2023/05/05 10:02:34;;;;;;;4.57;3.28;;;;;;;17.59;100.00;101611.88;4994516;28;20031;-46
2023/05/05 10:05:11;;;;;;;4.78;2.65;;;;;;;17.26;100.00;101532.72;4994299;28;20034;-42
2023/05/05 10:07:37;;;;;;;6.97;3.60;;;;;;;17.86;100.00;101598.03;4993356;28;20492;-42
2023/05/05 10:10:04;;;;;;;5.82;3.45;;;;;;;17.58;100.00;101541.81;4995391;28;20045;-42
2023/05/05 10:12:31;;;;;;;5.05;3.33;;;;;;;17.71;100.00;101537.59;4994643;28;20092;-42
2023/05/05 10:15:00;;;;;;;5.95;3.65;;;;;;;18.10;100.00;101587.06;4978076;28;20176;-41
2023/05/05 10:17:29;;;;;;;5.43;4.45;;;;;;;18.22;100.00;101592.63;4995255;28;20092;-42
2023/05/05 10:19:56;;;;;;;8.20;4.10;;;;;;;18.37;100.00;101596.31;4995132;28;20383;-41
2023/05/05 10:22:22;;;;;;;7.22;4.40;;;;;;;17.97;100.00;101545.13;4977654;28;20049;-44
2023/05/05 10:25:02;;;;;;;8.02;5.57;;;;;;;18.17;100.00;101580.50;4994011;28;20486;-42
2023/05/05 10:27:39;;;;;;;6.53;4.83;;;;;;;18.16;100.00;101594.75;4994910;28;20030;-47
2023/05/05 10:30:06;;;;;;;7.68;5.10;;;;;;;18.04;100.00;101593.59;4978232;28;20034;-42
2023/05/05 10:32:47;;;;;;;7.25;5.03;;;;;;;18.02;100.00;101598.13;4994350;28;20124;-42
2023/05/05 10:35:20;;;;;;;;;;;;;;;17.99;100.00;101593.84;4993001;28;20030;-41
2023/05/05 10:37:45;;;;;;;10.02;5.80;;;;;;;17.99;100.00;101595.63;4977203;28;20027;-45
2023/05/05 10:40:14;;;;;;;10.98;5.45;;;;;;;17.83;100.00;101562.75;4977799;28;20513;-45
2023/05/05 10:42:40;;;;;;;6.50;5.18;;;;;;;17.97;100.00;101597.53;4978056;28;20046;-42
2023/05/05 10:45:06;;;;;;;9.07;5.68;;;;;;;17.93;100.00;101577.28;4978535;28;20058;-42
2023/05/05 10:47:32;;;;;;;10.82;5.40;;;;;;;17.69;100.00;101567.88;4994524;28;20077;-42
2023/05/05 10:50:23;;;;;;;7.90;5.63;;;;;;;17.78;100.00;101589.59;4994146;28;20037;-43
2023/05/05 10:53:16;;;;;;;6.85;3.60;;;;;;;17.66;100.00;101594.69;4976994;28;20117;-42
2023/05/05 10:56:14;;;;;;;5.50;2.40;;;;;;;17.39;100.00;101599.53;4977311;28;20038;-41
2023/05/05 10:58:43;;;;;;;2.65;1.25;;;;;;;16.88;100.00;101549.66;4995201;28;20482;-42
2023/05/05 11:01:08;;;;;;;5.15;2.90;;;;;;;17.12;100.00;101607.03;4995601;28;20030;-45
2023/05/05 11:03:34;;;;;;;5.85;4.57;;;;;;;16.98;100.00;101582.88;4994330;28;20498;-43
2023/05/05 11:06:02;;;;;;;9.02;5.97;;;;;;;16.96;100.00;101592.72;4975964;28;20038;-43
2023/05/05 11:08:35;;;;;;;11.18;6.20;;;;;;;16.87;100.00;101585.16;4992392;28;20050;-48
2023/05/05 11:11:01;;;;;;;8.38;6.10;;;;;;;16.40;100.00;101506.72;4994318;28;20115;-42
2023/05/05 11:13:27;;;;;;;8.95;6.05;;;;;;;16.74;100.00;101560.09;4994308;28;20022;-44